createdAt,value
2023-03-18T00:02:49.636Z,63.64
2023-03-18T00:07:49.535Z,63.98
2023-03-18T00:12:49.480Z,64.18
2023-03-18T00:17:49.420Z,64.18
2023-03-18T00:22:49.354Z,64.42
2023-03-18T00:27:49.272Z,64.18
2023-03-18T00:32:49.295Z,64.59
2023-03-18T00:37:49.155Z,65.44
2023-03-18T00:42:49.085Z,65.75
2023-03-18T00:47:49.013Z,66.91
2023-03-18T00:52:48.959Z,66.80
2023-03-18T00:57:48.890Z,65.67
2023-03-18T01:02:48.824Z,63.09
2023-03-18T01:07:48.749Z,61.29
2023-03-18T01:12:48.691Z,60.34
2023-03-18T01:17:48.619Z,59.80
2023-03-18T01:22:48.562Z,59.08
2023-03-18T01:27:48.487Z,58.85
2023-03-18T01:32:48.464Z,58.34
2023-03-18T01:37:48.364Z,57.91
2023-03-18T01:42:48.297Z,58.01
2023-03-18T01:47:48.221Z,58.52
2023-03-18T01:52:48.164Z,59.23
2023-03-18T01:57:48.091Z,59.36
2023-03-18T02:02:48.033Z,58.95
2023-03-18T02:07:47.959Z,58.92
2023-03-18T02:12:47.904Z,58.62
2023-03-18T02:17:47.829Z,58.83
2023-03-18T02:22:47.774Z,59.03
2023-03-18T02:27:47.704Z,59.13
2023-03-18T02:32:47.668Z,59.26
2023-03-18T02:37:47.595Z,59.57
2023-03-18T02:42:47.510Z,59.77
2023-03-18T02:47:47.437Z,59.57
2023-03-18T02:52:47.388Z,59.77
2023-03-18T02:57:47.322Z,60.08
2023-03-18T03:02:47.368Z,59.87
2023-03-18T03:07:47.177Z,60.69
2023-03-18T03:12:47.119Z,61.10
2023-03-18T03:17:47.048Z,61.13
2023-03-18T03:22:46.990Z,61.02
2023-03-18T03:27:46.917Z,61.20
2023-03-18T03:32:46.904Z,61.02
2023-03-18T03:37:46.788Z,61.23
2023-03-18T03:42:46.729Z,61.74
2023-03-18T03:47:46.658Z,62.39
2023-03-18T03:52:46.605Z,62.59
2023-03-18T03:57:46.524Z,63.00
2023-03-18T04:02:46.506Z,63.84
2023-03-18T04:07:46.403Z,64.36
2023-03-18T04:12:46.360Z,65.10
2023-03-18T04:17:46.267Z,65.61
2023-03-18T04:22:46.208Z,65.96
2023-03-18T04:27:46.140Z,65.93
2023-03-18T04:32:46.138Z,66.43
2023-03-18T04:37:46.009Z,66.97
2023-03-18T04:42:45.937Z,67.49
2023-03-18T04:47:45.879Z,67.70
2023-03-18T04:52:45.802Z,68.00
2023-03-18T04:57:45.806Z,68.21
2023-03-18T05:02:45.670Z,68.38
2023-03-18T05:07:45.615Z,68.79
2023-03-18T05:12:45.539Z,69.10
2023-03-18T05:17:45.481Z,69.61
2023-03-18T05:22:45.408Z,69.51
2023-03-18T05:27:45.357Z,69.68
2023-03-18T05:32:45.417Z,69.47
2023-03-18T05:37:45.218Z,69.47
2023-03-18T05:42:55.970Z,69.37
2023-03-18T05:47:46.111Z,69.68
2023-03-18T05:52:45.011Z,69.85
2023-03-18T05:57:44.954Z,69.65
2023-03-18T06:02:44.899Z,70.47
2023-03-18T06:07:44.826Z,71.18
2023-03-18T06:12:44.764Z,71.38
2023-03-18T06:17:44.714Z,70.88
2023-03-18T06:22:44.620Z,70.15
2023-03-18T06:27:44.563Z,69.31
2023-03-18T06:32:44.556Z,69.61
2023-03-18T06:37:44.447Z,67.81
2023-03-18T06:42:44.362Z,65.81
2023-03-18T06:47:44.298Z,64.96
2023-03-18T06:52:44.227Z,65.03
2023-03-18T06:57:44.189Z,65.37
2023-03-18T07:02:44.105Z,65.47
2023-03-18T07:07:44.036Z,65.75
2023-03-18T07:12:43.970Z,65.67
2023-03-18T07:17:43.905Z,65.85
2023-03-18T07:22:43.837Z,65.18
2023-03-18T07:27:43.777Z,64.56
2023-03-18T07:32:43.728Z,64.67
2023-03-18T07:37:43.642Z,64.97
2023-03-18T07:42:43.572Z,64.97
2023-03-18T07:47:44.741Z,64.44
2023-03-18T07:52:43.434Z,64.33
2023-03-18T07:57:43.393Z,63.59
2023-03-18T08:02:43.301Z,63.28
2023-03-18T08:07:43.242Z,63.12
2023-03-18T08:12:52.680Z,62.35
2023-03-18T08:17:43.113Z,61.10
2023-03-18T08:22:43.039Z,60.34
2023-03-18T08:27:43.155Z,60.41
2023-03-18T08:32:42.962Z,59.14
2023-03-18T08:37:42.858Z,54.88
2023-03-18T08:42:42.779Z,51.46
2023-03-18T08:47:42.725Z,49.02
2023-03-18T08:52:42.661Z,51.00
2023-03-18T08:57:42.593Z,50.95
2023-03-18T09:02:42.517Z,51.66
2023-03-18T09:07:42.468Z,52.03
2023-03-18T09:12:42.394Z,51.31
2023-03-18T09:18:00.071Z,47.07
2023-03-18T09:22:43.283Z,44.15
2023-03-18T09:27:42.198Z,44.87
2023-03-18T09:32:42.204Z,45.25
2023-03-18T09:37:42.070Z,44.61
2023-03-18T09:42:41.996Z,43.89
2023-03-18T09:47:41.940Z,44.40
2023-03-18T09:52:41.866Z,44.90
2023-03-18T09:57:41.809Z,45.67
2023-03-18T10:02:41.745Z,44.56
2023-03-18T10:07:41.682Z,44.61
2023-03-18T10:12:41.612Z,48.71
2023-03-18T10:17:41.554Z,51.71
2023-03-18T10:22:41.483Z,53.02
2023-03-18T10:27:41.423Z,53.19
2023-03-18T10:32:49.448Z,53.02
2023-03-18T10:37:41.296Z,53.67
2023-03-18T10:42:41.275Z,54.50
2023-03-18T10:47:41.185Z,51.29
2023-03-18T10:52:41.100Z,49.29
2023-03-18T10:57:41.037Z,50.83
2023-03-18T11:02:41.002Z,53.09
2023-03-18T11:07:40.907Z,53.22
2023-03-18T11:12:40.836Z,53.87
2023-03-18T11:17:40.794Z,53.97
2023-03-18T11:22:40.703Z,55.40
2023-03-18T11:27:40.653Z,55.63
2023-03-18T11:32:40.716Z,56.34
2023-03-18T11:37:40.516Z,54.85
2023-03-18T11:42:40.474Z,54.72
2023-03-18T11:47:40.382Z,53.19
2023-03-18T11:52:40.310Z,50.11
2023-03-18T11:57:40.251Z,50.31
2023-03-18T12:02:40.177Z,50.93
2023-03-18T12:07:40.137Z,51.14
2023-03-18T12:12:40.048Z,51.34
2023-03-18T12:17:39.994Z,50.24
2023-03-18T12:22:39.916Z,50.86
2023-03-18T12:27:39.849Z,51.39
2023-03-18T12:32:39.812Z,51.91
2023-03-18T12:37:39.715Z,52.91
2023-03-18T12:42:39.639Z,53.64
2023-03-18T12:47:39.578Z,54.15
2023-03-18T12:52:39.504Z,56.07
2023-03-18T12:57:39.444Z,55.30
2023-03-18T13:02:39.463Z,54.82
2023-03-18T13:07:39.310Z,55.73
2023-03-18T13:12:39.214Z,55.45
2023-03-18T13:17:39.163Z,54.82
2023-03-18T13:22:39.094Z,55.12
2023-03-18T13:27:39.030Z,55.73
2023-03-18T13:32:38.998Z,55.52
2023-03-18T13:37:38.889Z,55.52
2023-03-18T13:42:38.827Z,55.73
2023-03-18T13:47:38.766Z,56.23
2023-03-18T13:52:38.700Z,56.43
2023-03-18T13:57:38.631Z,55.93
2023-03-18T14:02:38.560Z,55.15
2023-03-18T14:07:38.500Z,56.18
2023-03-18T14:12:38.430Z,56.38
2023-03-18T14:17:38.381Z,56.18
2023-03-18T14:22:38.312Z,56.98
2023-03-18T14:27:38.250Z,56.08
2023-03-18T14:32:38.273Z,55.68
2023-03-18T14:37:38.134Z,56.58
2023-03-18T14:42:38.063Z,56.51
2023-03-18T14:47:39.452Z,56.41
2023-03-18T14:52:37.939Z,57.42
2023-03-18T14:57:37.862Z,57.42
2023-03-18T15:02:37.885Z,57.01
2023-03-18T15:07:37.734Z,56.81
2023-03-18T15:12:37.679Z,57.11
2023-03-18T15:17:37.608Z,57.42
2023-03-18T15:22:37.555Z,57.72
2023-03-18T15:27:37.497Z,57.04
2023-03-18T15:32:37.451Z,57.34
2023-03-18T15:37:37.372Z,57.34
2023-03-18T15:42:37.306Z,57.64
2023-03-18T15:47:37.244Z,57.55
2023-03-18T15:52:37.174Z,57.34
2023-03-18T15:57:37.118Z,57.75
2023-03-18T16:02:37.065Z,57.67
2023-03-18T16:07:36.980Z,58.07
2023-03-18T16:12:36.920Z,58.88
2023-03-18T16:17:36.847Z,59.01
2023-03-18T16:22:36.791Z,59.51
2023-03-18T16:27:36.716Z,60.04
2023-03-18T16:32:36.737Z,60.15
2023-03-18T16:37:36.579Z,60.77
2023-03-18T16:42:36.522Z,61.28
2023-03-18T16:47:36.458Z,61.71
2023-03-18T16:52:36.388Z,62.32
2023-03-18T16:57:36.326Z,63.36
2023-03-18T17:02:36.258Z,63.86
2023-03-18T17:07:36.195Z,64.50
2023-03-18T17:12:36.126Z,65.64
2023-03-18T17:17:36.098Z,66.75
2023-03-18T17:22:36.008Z,67.79
2023-03-18T17:27:35.921Z,69.24
2023-03-18T17:32:35.972Z,70.52
2023-03-18T17:37:35.800Z,67.65
2023-03-18T17:42:35.740Z,67.15
2023-03-18T17:47:35.661Z,67.45
2023-03-18T17:52:35.826Z,68.90
2023-03-18T17:57:35.535Z,69.23
2023-03-18T18:02:35.536Z,68.12
2023-03-18T18:07:35.404Z,68.53
2023-03-18T18:12:35.342Z,68.53
2023-03-18T18:17:35.273Z,69.37
2023-03-18T18:22:35.208Z,70.21
2023-03-18T18:27:35.144Z,70.95
2023-03-18T18:32:35.141Z,70.11
2023-03-18T18:37:35.012Z,69.20
2023-03-18T18:42:34.940Z,69.81
2023-03-18T18:47:34.887Z,70.65
2023-03-18T18:52:34.815Z,71.50
2023-03-18T18:57:34.757Z,71.94
2023-03-18T19:02:34.686Z,71.94
2023-03-18T19:08:29.410Z,70.99
2023-03-18T19:13:29.325Z,70.89
2023-03-18T19:18:29.265Z,71.43
2023-03-18T19:23:29.196Z,71.83
2023-03-18T19:28:29.150Z,72.38
2023-03-18T19:33:29.266Z,72.68
2023-03-18T19:38:28.998Z,72.78
2023-03-18T19:43:28.923Z,72.27
2023-03-18T19:48:28.891Z,72.47
2023-03-18T19:53:28.793Z,73.02
2023-03-18T19:58:28.744Z,73.87
2023-03-18T20:03:28.662Z,74.61
2023-03-18T20:08:28.608Z,74.82
2023-03-18T20:13:28.534Z,75.12
2023-03-18T20:19:23.132Z,75.46
2023-03-18T20:24:23.069Z,75.90
2023-03-18T20:29:22.998Z,75.90
2023-03-18T20:34:22.951Z,76.00
2023-03-18T20:39:22.886Z,76.31
2023-03-18T20:44:22.817Z,76.55
2023-03-18T20:49:22.737Z,76.95
2023-03-18T20:54:22.704Z,77.40
2023-03-18T20:59:22.616Z,77.70
2023-03-18T21:04:22.585Z,77.85
2023-03-18T21:09:22.474Z,77.85
2023-03-18T21:15:17.073Z,77.74
2023-03-18T21:20:22.067Z,77.44
2023-03-18T21:25:16.930Z,77.58
2023-03-18T21:32:06.170Z,77.58
2023-03-18T21:37:06.113Z,78.02
2023-03-18T21:42:06.029Z,78.22
2023-03-18T21:47:05.968Z,78.12
2023-03-18T21:52:05.897Z,77.92
2023-03-18T21:57:05.840Z,77.20
2023-03-18T22:02:05.766Z,77.00
2023-03-18T22:07:05.708Z,76.59
2023-03-18T22:12:05.634Z,75.67
2023-03-18T22:17:05.580Z,74.82
2023-03-18T22:22:05.511Z,74.42
2023-03-18T22:27:05.476Z,74.11
2023-03-18T22:32:05.372Z,73.40
2023-03-18T22:37:05.314Z,72.99
2023-03-18T22:42:05.234Z,72.55
2023-03-18T22:47:05.174Z,72.24
2023-03-18T22:52:05.097Z,71.93
2023-03-18T22:57:05.041Z,70.71
2023-03-18T23:02:05.049Z,70.37
2023-03-18T23:07:04.987Z,70.37
2023-03-18T23:12:04.842Z,70.81
2023-03-18T23:17:04.784Z,71.53
2023-03-18T23:22:04.707Z,72.17
2023-03-18T23:27:04.638Z,72.47
2023-03-18T23:32:04.577Z,72.51
2023-03-18T23:37:04.503Z,73.12
2023-03-18T23:42:04.429Z,73.43
2023-03-18T23:47:04.373Z,73.87
2023-03-18T23:52:04.314Z,73.77
2023-03-18T23:57:04.238Z,72.95
